Portada
METAR-TAF:

METAR-TAF

Aeroports :

Deauville, França

latitud: 49-21-55N, longitud: 000-09-16E, altitud: 146 m

Observació

L'informe es va fer fa 26 minuts, a les 02:00 UTC
Vent 2 kt del Nord-Est
Temperatura 11°C
Humitat 82%
Pressió 1034 hPa
Visibilitat 10 km o més
sense núvols per sota de 1500 mi sense presència de cumulonimbus.

METAR: LFRG 270200Z AUTO 05002KT CAVOK 11/08 Q1034

Hora: 04:26 (02:26 UTC)


TAF: manca

Observacions i pronòstics meteorològics de més de 4000 aeroports (METAR i TAF).

Les estacions disponibles són els punts grocs i vermells al mapa.

Posi el ratolí al punt desitjat per veure el nom de l'estació.

Feu clic per veure les observacions i els pronòstics meteorològics.

Per canviar el mapa: feu clic els botons verds amb una creu de color negre per apropar; al botó verd amb un guió per allunyar la imatge; o en les fletxes verdes per a mapes adjacents.


METAR-TAF: